createdAt,value
2017-07-12T00:00:20.292Z,0
2017-07-12T00:01:23.154Z,0
2017-07-12T00:02:27.837Z,0
2017-07-12T00:03:30.884Z,0
2017-07-12T00:04:34.335Z,0
2017-07-12T00:05:36.232Z,0
2017-07-12T00:06:38.167Z,0
2017-07-12T00:07:40.112Z,0
2017-07-12T00:08:42.085Z,0
2017-07-12T00:09:44.030Z,0
2017-07-12T00:10:47.134Z,0
2017-07-12T00:11:50.177Z,0
2017-07-12T00:12:53.218Z,0
2017-07-12T00:13:56.304Z,0
2017-07-12T00:14:58.199Z,0
2017-07-12T00:16:01.193Z,0
2017-07-12T00:17:04.366Z,0
2017-07-12T00:18:08.013Z,0
2017-07-12T00:19:11.498Z,0
2017-07-12T00:20:15.009Z,0
2017-07-12T00:21:16.813Z,0
2017-07-12T00:22:19.901Z,0
2017-07-12T00:23:22.887Z,0
2017-07-12T00:24:26.446Z,0
2017-07-12T00:25:31.085Z,0
2017-07-12T00:26:34.267Z,0
2017-07-12T00:27:36.176Z,0
2017-07-12T00:28:39.270Z,0
2017-07-12T00:29:42.307Z,0
2017-07-12T00:30:45.804Z,0
2017-07-12T00:31:47.763Z,0
2017-07-12T00:32:49.835Z,0
2017-07-12T00:33:53.092Z,0
2017-07-12T00:34:56.190Z,0
2017-07-12T00:35:59.272Z,0
2017-07-12T00:37:02.723Z,0
2017-07-12T00:38:05.737Z,0
2017-07-12T00:39:07.735Z,0
2017-07-12T00:40:09.582Z,0
2017-07-12T00:41:12.733Z,0
2017-07-12T00:42:15.664Z,0
2017-07-12T00:43:17.670Z,0
2017-07-12T00:44:21.285Z,0
2017-07-12T00:45:23.130Z,0
2017-07-12T00:46:26.382Z,0
2017-07-12T00:47:29.404Z,0
2017-07-12T00:48:32.562Z,0
2017-07-12T00:49:35.832Z,0
2017-07-12T00:50:38.853Z,0
2017-07-12T00:51:40.848Z,0
2017-07-12T00:52:42.743Z,0
2017-07-12T00:53:44.701Z,0
2017-07-12T00:54:47.536Z,0
2017-07-12T00:55:50.589Z,0
2017-07-12T00:56:53.608Z,0
2017-07-12T00:57:55.673Z,0
2017-07-12T00:58:58.880Z,0
2017-07-12T01:00:02.036Z,0
2017-07-12T01:01:05.250Z,0
2017-07-12T01:02:08.357Z,0
2017-07-12T01:03:11.338Z,0
2017-07-12T01:04:14.433Z,0
2017-07-12T01:05:17.604Z,0
2017-07-12T01:06:18.281Z,0
2017-07-12T01:07:21.171Z,0
2017-07-12T01:08:24.140Z,0
2017-07-12T01:09:27.235Z,0
2017-07-12T01:10:29.192Z,0
2017-07-12T01:11:31.272Z,0
2017-07-12T01:12:34.351Z,0
2017-07-12T01:13:37.431Z,0
2017-07-12T01:14:40.609Z,0
2017-07-12T01:15:43.666Z,0
2017-07-12T01:16:44.479Z,0
2017-07-12T01:17:47.376Z,0
2017-07-12T01:18:50.387Z,0
2017-07-12T01:19:53.274Z,0
2017-07-12T01:20:56.570Z,0
2017-07-12T01:21:58.584Z,0
2017-07-12T01:23:01.717Z,0
2017-07-12T01:24:05.123Z,0
2017-07-12T01:25:08.120Z,0
2017-07-12T01:26:11.156Z,0
2017-07-12T01:27:14.442Z,0
2017-07-12T01:28:17.999Z,0
2017-07-12T01:29:23.055Z,0
2017-07-12T01:30:27.676Z,0
2017-07-12T01:31:31.168Z,0
2017-07-12T01:32:34.451Z,0
2017-07-12T01:33:36.605Z,0
2017-07-12T01:34:39.948Z,0
2017-07-12T01:35:43.355Z,0
2017-07-12T01:36:47.944Z,0
2017-07-12T01:37:49.934Z,0
2017-07-12T01:38:51.842Z,0
2017-07-12T01:39:54.730Z,0
2017-07-12T01:40:56.501Z,0
2017-07-12T01:41:59.442Z,0
2017-07-12T01:43:01.253Z,0
2017-07-12T01:44:04.254Z,0
2017-07-12T01:45:06.192Z,0
2017-07-12T01:46:08.151Z,0
2017-07-12T01:47:11.613Z,0
2017-07-12T01:48:14.641Z,0
2017-07-12T01:49:16.617Z,0
2017-07-12T01:50:19.514Z,0
2017-07-12T01:51:22.449Z,0
2017-07-12T01:52:24.294Z,0
2017-07-12T01:53:27.379Z,0
2017-07-12T01:54:29.267Z,0
2017-07-12T01:55:31.158Z,0
2017-07-12T01:56:34.095Z,0
2017-07-12T01:57:36.937Z,0
2017-07-12T01:58:39.005Z,0
2017-07-12T01:59:40.954Z,0
2017-07-12T02:00:42.832Z,0
2017-07-12T02:01:44.698Z,0
2017-07-12T02:02:46.523Z,0
2017-07-12T02:03:48.531Z,0
2017-07-12T02:04:50.386Z,0
2017-07-12T02:05:52.379Z,0
2017-07-12T02:06:54.310Z,0
2017-07-12T02:07:57.401Z,0
2017-07-12T02:08:59.190Z,0
2017-07-12T02:10:01.044Z,0
2017-07-12T02:11:03.947Z,0
2017-07-12T02:12:06.867Z,0
2017-07-12T02:13:08.735Z,0
2017-07-12T02:14:12.431Z,0
2017-07-12T02:15:15.476Z,0
2017-07-12T02:16:18.524Z,0
2017-07-12T02:17:20.389Z,0
2017-07-12T02:18:23.424Z,0
2017-07-12T02:19:26.386Z,0
2017-07-12T02:20:28.329Z,0
2017-07-12T02:21:30.269Z,0
2017-07-12T02:22:33.349Z,0
2017-07-12T02:23:35.285Z,0
2017-07-12T02:24:37.177Z,0
2017-07-12T02:25:39.093Z,0
2017-07-12T02:26:42.168Z,0
2017-07-12T02:27:44.119Z,0
2017-07-12T02:28:46.143Z,0
2017-07-12T02:29:49.106Z,0
2017-07-12T02:30:50.803Z,0
2017-07-12T02:31:53.789Z,0
2017-07-12T02:32:56.395Z,0
2017-07-12T02:33:58.334Z,0
2017-07-12T02:35:00.323Z,0
2017-07-12T02:36:02.361Z,0
2017-07-12T02:37:04.193Z,0
2017-07-12T02:38:06.266Z,0
2017-07-12T02:39:08.275Z,0
2017-07-12T02:40:11.216Z,0
2017-07-12T02:41:14.216Z,0
2017-07-12T02:42:17.102Z,0
2017-07-12T02:43:18.849Z,0
2017-07-12T02:44:21.949Z,0
2017-07-12T02:45:24.809Z,0
2017-07-12T02:46:27.762Z,0
2017-07-12T02:47:29.657Z,0
2017-07-12T02:48:32.610Z,0
2017-07-12T02:49:35.565Z,0
2017-07-12T02:50:37.587Z,0
2017-07-12T02:51:40.661Z,0
2017-07-12T02:52:43.591Z,0
2017-07-12T02:53:46.670Z,0
2017-07-12T02:54:49.689Z,0
2017-07-12T02:55:51.600Z,0
2017-07-12T02:56:54.839Z,0
2017-07-12T02:57:56.689Z,0
2017-07-12T02:58:59.593Z,0
2017-07-12T03:00:02.473Z,0
2017-07-12T03:01:06.497Z,0
2017-07-12T03:02:08.599Z,0
2017-07-12T03:03:10.437Z,0
2017-07-12T03:04:12.421Z,0
2017-07-12T03:05:15.464Z,0
2017-07-12T03:06:18.539Z,0
2017-07-12T03:07:21.516Z,0
2017-07-12T03:08:24.695Z,0
2017-07-12T03:09:26.520Z,0
2017-07-12T03:10:28.304Z,0
2017-07-12T03:11:31.894Z,0
2017-07-12T03:12:34.916Z,0
2017-07-12T03:13:37.942Z,0
2017-07-12T03:14:39.932Z,0
2017-07-12T03:15:41.865Z,4
2017-07-12T03:16:43.764Z,4
2017-07-12T03:17:45.737Z,4
2017-07-12T03:18:48.659Z,0
2017-07-12T03:19:50.604Z,4
2017-07-12T03:20:52.596Z,4
2017-07-12T03:21:54.624Z,8
2017-07-12T03:22:57.486Z,8
2017-07-12T03:24:00.346Z,4
2017-07-12T03:25:03.323Z,4
2017-07-12T03:26:05.264Z,4
2017-07-12T03:27:07.058Z,8
2017-07-12T03:28:09.003Z,8
2017-07-12T03:29:12.205Z,8
2017-07-12T03:30:14.206Z,8
2017-07-12T03:31:17.197Z,4
2017-07-12T03:32:19.042Z,8
2017-07-12T03:33:22.231Z,8
2017-07-12T03:34:25.351Z,12
2017-07-12T03:35:28.394Z,12
2017-07-12T03:36:30.213Z,12
2017-07-12T03:37:32.150Z,12
2017-07-12T03:38:35.220Z,16
2017-07-12T03:39:37.076Z,20
2017-07-12T03:40:40.139Z,20
2017-07-12T03:41:42.988Z,20
2017-07-12T03:42:46.170Z,24
2017-07-12T03:43:48.122Z,24
2017-07-12T03:44:51.155Z,24
2017-07-12T03:45:54.082Z,24
2017-07-12T03:46:57.152Z,24
2017-07-12T03:48:00.193Z,24
2017-07-12T03:49:02.121Z,24
2017-07-12T03:50:05.167Z,24
2017-07-12T03:51:07.036Z,20
2017-07-12T03:52:08.928Z,24
2017-07-12T03:53:10.767Z,28
2017-07-12T03:54:13.897Z,28
2017-07-12T03:55:16.756Z,28
2017-07-12T03:56:18.658Z,32
2017-07-12T03:57:21.554Z,28
2017-07-12T03:58:24.546Z,32
2017-07-12T03:59:27.571Z,32
2017-07-12T04:00:29.288Z,40
2017-07-12T04:01:32.567Z,44
2017-07-12T04:02:35.403Z,44
2017-07-12T04:03:37.320Z,52
2017-07-12T04:04:40.309Z,56
2017-07-12T04:05:43.234Z,64
2017-07-12T04:06:46.303Z,72
2017-07-12T04:07:49.354Z,84
2017-07-12T04:08:51.307Z,96
2017-07-12T04:09:54.390Z,108
2017-07-12T04:10:56.175Z,112
2017-07-12T04:11:58.168Z,112
2017-07-12T04:13:00.004Z,108
2017-07-12T04:14:01.887Z,104
2017-07-12T04:15:03.730Z,100
2017-07-12T04:16:05.694Z,92
2017-07-12T04:17:07.799Z,88
2017-07-12T04:18:09.626Z,84
2017-07-12T04:19:11.526Z,80
2017-07-12T04:20:13.517Z,72
2017-07-12T04:21:15.499Z,64
2017-07-12T04:22:17.402Z,56
2017-07-12T04:23:19.280Z,52
2017-07-12T04:24:21.091Z,48
2017-07-12T04:25:23.018Z,40
2017-07-12T04:26:24.936Z,40
2017-07-12T04:27:26.700Z,32
2017-07-12T04:28:28.668Z,28
2017-07-12T04:29:31.675Z,28
2017-07-12T04:30:33.498Z,24
2017-07-12T04:31:35.534Z,28
2017-07-12T04:32:37.559Z,32
2017-07-12T04:33:39.444Z,32
2017-07-12T04:34:41.256Z,40
2017-07-12T04:35:43.190Z,44
2017-07-12T04:36:46.133Z,48
2017-07-12T04:37:49.045Z,56
2017-07-12T04:38:52.024Z,68
2017-07-12T04:39:53.867Z,84
2017-07-12T04:40:56.760Z,116
2017-07-12T04:41:58.681Z,132
2017-07-12T04:43:00.505Z,136
2017-07-12T04:44:02.371Z,144
2017-07-12T04:45:05.271Z,164
2017-07-12T04:46:07.103Z,184
2017-07-12T04:47:08.997Z,216
2017-07-12T04:48:10.905Z,244
2017-07-12T04:49:13.729Z,240
2017-07-12T04:50:15.632Z,208
2017-07-12T04:51:17.569Z,200
2017-07-12T04:52:19.394Z,196
2017-07-12T04:53:21.232Z,188
2017-07-12T04:54:23.133Z,160
2017-07-12T04:55:24.989Z,136
2017-07-12T04:56:26.762Z,124
2017-07-12T04:57:28.637Z,120
2017-07-12T04:58:30.459Z,104
2017-07-12T04:59:32.233Z,96
2017-07-12T05:00:34.108Z,92
2017-07-12T05:01:36.042Z,88
2017-07-12T05:02:37.977Z,80
2017-07-12T05:03:39.793Z,76
2017-07-12T05:04:41.701Z,72
2017-07-12T05:05:43.645Z,84
2017-07-12T05:06:45.399Z,112
2017-07-12T05:07:48.289Z,124
2017-07-12T05:08:50.192Z,120
2017-07-12T05:09:52.052Z,100
2017-07-12T05:10:53.863Z,96
2017-07-12T05:11:55.788Z,112
2017-07-12T05:12:57.540Z,140
2017-07-12T05:13:59.424Z,148
2017-07-12T05:15:01.298Z,124
2017-07-12T05:16:03.197Z,112
2017-07-12T05:17:05.024Z,96
2017-07-12T05:18:08.124Z,84
2017-07-12T05:19:09.929Z,88
2017-07-12T05:20:11.978Z,120
2017-07-12T05:21:13.896Z,120
2017-07-12T05:22:15.798Z,124
2017-07-12T05:23:17.590Z,116
2017-07-12T05:24:20.367Z,108
2017-07-12T05:25:22.258Z,132
2017-07-12T05:26:24.109Z,196
2017-07-12T05:27:26.996Z,232
2017-07-12T05:28:29.906Z,212
2017-07-12T05:29:33.274Z,176
2017-07-12T05:30:36.181Z,156
2017-07-12T05:31:38.736Z,168
2017-07-12T05:32:41.641Z,228
2017-07-12T05:33:44.555Z,260
2017-07-12T05:34:46.390Z,236
2017-07-12T05:35:49.270Z,240
2017-07-12T05:36:51.154Z,296
2017-07-12T05:37:52.968Z,320
2017-07-12T05:38:57.150Z,304
2017-07-12T05:40:00.837Z,308
2017-07-12T05:41:02.778Z,292
2017-07-12T05:42:04.712Z,312
2017-07-12T05:43:06.476Z,320
2017-07-12T05:44:08.370Z,316
2017-07-12T05:45:10.191Z,316
2017-07-12T05:46:12.063Z,308
2017-07-12T05:47:13.819Z,308
2017-07-12T05:48:18.339Z,316
2017-07-12T05:49:21.242Z,332
2017-07-12T05:50:24.166Z,328
2017-07-12T05:51:26.906Z,344
2017-07-12T05:52:29.921Z,372
2017-07-12T05:53:32.797Z,452
2017-07-12T05:54:34.474Z,452
2017-07-12T05:55:37.304Z,444
2017-07-12T05:56:39.152Z,372
2017-07-12T05:57:42.369Z,256
2017-07-12T05:58:45.276Z,192
2017-07-12T05:59:48.046Z,188
2017-07-12T06:00:51.283Z,176
2017-07-12T06:01:54.123Z,180
2017-07-12T06:02:57.006Z,200
2017-07-12T06:03:59.007Z,244
2017-07-12T06:05:01.993Z,272
2017-07-12T06:06:05.061Z,300
2017-07-12T06:07:08.216Z,324
2017-07-12T06:08:11.141Z,348
2017-07-12T06:09:14.157Z,444
2017-07-12T06:10:17.142Z,528
2017-07-12T06:11:20.095Z,556
2017-07-12T06:12:23.324Z,480
2017-07-12T06:13:26.457Z,428
2017-07-12T06:14:29.374Z,416
2017-07-12T06:15:31.055Z,448
2017-07-12T06:16:33.862Z,572
2017-07-12T06:17:35.598Z,512
2017-07-12T06:18:37.345Z,432
2017-07-12T06:19:39.269Z,436
2017-07-12T06:20:41.111Z,424
2017-07-12T06:21:42.987Z,336
2017-07-12T06:22:44.881Z,368
2017-07-12T06:23:46.862Z,368
2017-07-12T06:24:48.762Z,396
2017-07-12T06:25:50.502Z,388
2017-07-12T06:26:52.371Z,412
2017-07-12T06:27:55.711Z,352
2017-07-12T06:28:57.681Z,356
2017-07-12T06:29:59.606Z,500
2017-07-12T06:31:01.433Z,548
2017-07-12T06:32:03.172Z,660
2017-07-12T06:33:05.118Z,748
2017-07-12T06:34:09.009Z,696
2017-07-12T06:35:11.927Z,656
2017-07-12T06:36:13.635Z,632
2017-07-12T06:37:15.419Z,560
2017-07-12T06:38:17.226Z,572
2017-07-12T06:39:20.239Z,664
2017-07-12T06:40:22.111Z,752
2017-07-12T06:41:23.912Z,760
2017-07-12T06:42:25.739Z,812
2017-07-12T06:43:28.101Z,904
2017-07-12T06:44:30.816Z,888
2017-07-12T06:45:32.661Z,812
2017-07-12T06:46:34.481Z,684
2017-07-12T06:47:36.198Z,636
2017-07-12T06:48:38.063Z,592
2017-07-12T06:49:39.942Z,536
2017-07-12T06:50:42.887Z,504
2017-07-12T06:51:44.795Z,456
2017-07-12T06:52:47.789Z,456
2017-07-12T06:53:49.792Z,528
2017-07-12T06:54:51.648Z,500
2017-07-12T06:55:54.620Z,476
2017-07-12T06:56:57.375Z,540
2017-07-12T06:58:00.342Z,596
2017-07-12T06:59:02.142Z,576
2017-07-12T07:00:05.001Z,600
2017-07-12T07:01:07.753Z,696
2017-07-12T07:02:10.719Z,748
2017-07-12T07:03:12.585Z,764
2017-07-12T07:04:15.588Z,812
2017-07-12T07:05:17.488Z,844
2017-07-12T07:06:20.446Z,816
2017-07-12T07:07:22.324Z,716
2017-07-12T07:08:24.311Z,688
2017-07-12T07:09:26.128Z,752
2017-07-12T07:10:29.930Z,752
2017-07-12T07:11:31.625Z,752
2017-07-12T07:12:35.423Z,828
2017-07-12T07:13:37.208Z,932
2017-07-12T07:14:39.014Z,988
2017-07-12T07:15:40.830Z,1052
2017-07-12T07:16:43.644Z,940
2017-07-12T07:17:46.831Z,756
2017-07-12T07:18:48.722Z,668
2017-07-12T07:19:50.545Z,608
2017-07-12T07:20:52.590Z,460
2017-07-12T07:21:55.577Z,396
2017-07-12T07:22:59.432Z,420
2017-07-12T07:24:01.301Z,464
2017-07-12T07:25:04.260Z,392
2017-07-12T07:26:07.197Z,412
2017-07-12T07:27:08.896Z,600
2017-07-12T07:28:11.236Z,540
2017-07-12T07:29:14.111Z,408
2017-07-12T07:30:17.139Z,316
2017-07-12T07:31:20.030Z,304
2017-07-12T07:32:21.903Z,312
2017-07-12T07:33:24.801Z,300
2017-07-12T07:34:27.802Z,268
2017-07-12T07:35:29.713Z,276
2017-07-12T07:36:31.467Z,316
2017-07-12T07:37:33.272Z,336
2017-07-12T07:38:36.264Z,360
2017-07-12T07:39:39.369Z,332
2017-07-12T07:40:42.285Z,312
2017-07-12T07:41:46.732Z,324
2017-07-12T07:42:49.779Z,396
2017-07-12T07:43:51.714Z,456
2017-07-12T07:44:54.544Z,468
2017-07-12T07:45:56.405Z,500
2017-07-12T07:46:58.139Z,524
2017-07-12T07:48:00.031Z,564
2017-07-12T07:49:03.476Z,568
2017-07-12T07:50:06.266Z,532
2017-07-12T07:51:09.181Z,544
2017-07-12T07:52:10.954Z,516
2017-07-12T07:53:13.789Z,504
2017-07-12T07:54:15.605Z,540
2017-07-12T07:55:18.405Z,512
2017-07-12T07:56:21.432Z,460
2017-07-12T07:57:24.304Z,448
2017-07-12T07:58:26.023Z,476
2017-07-12T07:59:28.987Z,488
2017-07-12T08:00:32.895Z,412
2017-07-12T08:01:34.588Z,428
2017-07-12T08:02:36.325Z,372
2017-07-12T08:03:38.073Z,336
2017-07-12T08:04:39.893Z,416
2017-07-12T08:05:42.903Z,404
2017-07-12T08:06:45.807Z,420
2017-07-12T08:07:47.662Z,508
2017-07-12T08:08:51.011Z,588
2017-07-12T08:09:53.909Z,592
2017-07-12T08:10:56.705Z,456
2017-07-12T08:11:58.459Z,364
2017-07-12T08:13:00.305Z,324
2017-07-12T08:14:03.236Z,316
2017-07-12T08:15:05.028Z,328
2017-07-12T08:16:06.807Z,388
2017-07-12T08:17:09.698Z,540
2017-07-12T08:18:11.430Z,568
2017-07-12T08:19:13.302Z,640
2017-07-12T08:20:17.356Z,716
2017-07-12T08:21:19.249Z,768
2017-07-12T08:22:22.198Z,640
2017-07-12T08:23:24.029Z,468
2017-07-12T08:24:26.907Z,424
2017-07-12T08:25:29.753Z,444
2017-07-12T08:26:32.656Z,520
2017-07-12T08:27:34.413Z,652
2017-07-12T08:28:36.111Z,744
2017-07-12T08:29:39.051Z,720
2017-07-12T08:30:42.016Z,576
2017-07-12T08:31:43.752Z,456
2017-07-12T08:32:45.640Z,376
2017-07-12T08:33:48.595Z,324
2017-07-12T08:34:51.470Z,276
2017-07-12T08:35:54.354Z,264
2017-07-12T08:36:56.258Z,296
2017-07-12T08:37:58.073Z,336
2017-07-12T08:38:59.840Z,308
2017-07-12T08:40:02.687Z,248
2017-07-12T08:41:04.550Z,236
2017-07-12T08:42:06.323Z,228
2017-07-12T08:43:09.320Z,220
2017-07-12T08:44:11.226Z,216
2017-07-12T08:45:14.207Z,240
2017-07-12T08:46:17.128Z,260
2017-07-12T08:47:19.053Z,240
2017-07-12T08:48:20.800Z,204
2017-07-12T08:49:23.874Z,212
2017-07-12T08:50:25.733Z,208
2017-07-12T08:51:27.537Z,232
2017-07-12T08:52:30.457Z,260
2017-07-12T08:53:33.460Z,272
2017-07-12T08:54:35.173Z,284
2017-07-12T08:55:37.091Z,300
2017-07-12T08:56:38.766Z,276
2017-07-12T08:57:40.653Z,272
2017-07-12T08:58:43.595Z,324
2017-07-12T08:59:45.512Z,380
2017-07-12T09:00:48.507Z,344
2017-07-12T09:01:50.352Z,264
2017-07-12T09:02:52.230Z,280
2017-07-12T09:03:54.145Z,320
2017-07-12T09:04:55.924Z,340
2017-07-12T09:05:58.883Z,316
2017-07-12T09:07:01.789Z,264
2017-07-12T09:08:04.739Z,296
2017-07-12T09:09:07.574Z,284
2017-07-12T09:10:10.632Z,288
2017-07-12T09:11:14.349Z,340
2017-07-12T09:12:17.137Z,348
2017-07-12T09:13:20.192Z,384
2017-07-12T09:14:23.252Z,456
2017-07-12T09:15:24.942Z,556
2017-07-12T09:16:27.852Z,652
2017-07-12T09:17:30.802Z,652
2017-07-12T09:18:33.614Z,676
2017-07-12T09:19:35.463Z,644
2017-07-12T09:20:37.281Z,536
2017-07-12T09:21:39.204Z,736
2017-07-12T09:22:40.978Z,956
2017-07-12T09:23:44.119Z,968
2017-07-12T10:45:08.462Z,668
2017-07-12T10:46:11.209Z,664
2017-07-12T10:47:12.937Z,704
2017-07-12T10:48:14.670Z,648
2017-07-12T10:49:16.431Z,600
2017-07-12T10:50:19.701Z,712
2017-07-12T10:51:21.339Z,672
2017-07-12T10:52:24.103Z,880
2017-07-12T10:53:25.806Z,1004
2017-07-12T10:54:27.626Z,1032
2017-07-12T10:55:29.202Z,1248
2017-07-12T10:56:32.022Z,1456
2017-07-12T10:57:33.698Z,1612
2017-07-12T10:58:35.503Z,1944
2017-07-12T10:59:37.257Z,1936
2017-07-12T11:00:38.985Z,1756
2017-07-12T11:01:40.710Z,1984
2017-07-12T11:02:42.534Z,1992
2017-07-12T11:03:45.485Z,2180
2017-07-12T11:04:47.159Z,2264
2017-07-12T11:05:49.939Z,2032
2017-07-12T11:06:51.675Z,1844
2017-07-12T11:07:54.470Z,1400
2017-07-12T11:08:56.246Z,1268
2017-07-12T11:09:59.214Z,1392
2017-07-12T11:11:02.126Z,1324
2017-07-12T11:12:03.859Z,1020
2017-07-12T11:13:06.774Z,976
2017-07-12T11:14:09.510Z,704
2017-07-12T11:15:12.246Z,548
2017-07-12T11:16:13.926Z,508
2017-07-12T11:17:15.627Z,408
2017-07-12T11:18:18.295Z,304
2017-07-12T11:19:20.051Z,364
2017-07-12T11:20:22.849Z,416
2017-07-12T11:21:25.810Z,412
2017-07-12T11:22:28.868Z,392
2017-07-12T11:23:30.707Z,336
2017-07-12T11:24:35.460Z,384
2017-07-12T11:25:37.208Z,484
2017-07-12T11:26:39.296Z,560
2017-07-12T11:27:41.509Z,620
2017-07-12T11:28:43.794Z,508
2017-07-12T11:29:45.614Z,448
2017-07-12T11:30:47.611Z,372
2017-07-12T11:31:49.790Z,364
2017-07-12T11:32:51.933Z,496
2017-07-12T11:33:53.958Z,608
2017-07-12T11:34:55.943Z,680
2017-07-12T11:35:58.858Z,712
2017-07-12T11:37:00.914Z,744
2017-07-12T11:38:03.069Z,628
2017-07-12T11:39:05.894Z,624
2017-07-12T11:40:07.744Z,512
2017-07-12T11:41:09.780Z,564
2017-07-12T11:42:11.804Z,484
2017-07-12T11:43:13.656Z,424
2017-07-12T11:44:15.552Z,408
2017-07-12T11:45:18.372Z,460
2017-07-12T11:46:20.340Z,548
2017-07-12T11:47:22.361Z,448
2017-07-12T11:48:24.461Z,496
2017-07-12T11:49:27.338Z,572
2017-07-12T11:50:31.008Z,468
2017-07-12T11:51:32.813Z,408
2017-07-12T11:52:35.375Z,632
2017-07-12T11:53:37.488Z,648
2017-07-12T11:54:39.959Z,572
2017-07-12T11:55:42.951Z,596
2017-07-12T11:56:44.992Z,556
2017-07-12T11:57:51.961Z,456
2017-07-12T11:58:53.973Z,420
2017-07-12T11:59:56.078Z,452
2017-07-12T12:00:58.225Z,636
2017-07-12T12:02:01.200Z,672
2017-07-12T12:03:03.059Z,688
2017-07-12T12:04:05.981Z,716
2017-07-12T12:05:08.670Z,704
2017-07-12T12:06:11.227Z,684
2017-07-12T12:07:13.491Z,664
2017-07-12T12:08:16.222Z,660
2017-07-12T12:09:18.244Z,668
2017-07-12T12:10:20.399Z,676
2017-07-12T12:11:22.651Z,684
2017-07-12T12:12:24.460Z,692
2017-07-12T12:13:26.486Z,704
2017-07-12T12:14:29.477Z,712
2017-07-12T12:15:31.489Z,712
2017-07-12T12:16:33.770Z,712
2017-07-12T12:17:36.212Z,716
2017-07-12T12:18:38.150Z,728
2017-07-12T12:19:40.038Z,748
2017-07-12T12:20:42.497Z,752
2017-07-12T12:21:44.392Z,752
2017-07-12T12:22:46.521Z,752
2017-07-12T12:24:56.771Z,784
2017-07-12T12:26:16.030Z,784
2017-07-12T12:27:17.910Z,796
2017-07-12T12:28:19.622Z,732
2017-07-12T12:29:21.247Z,592
2017-07-12T12:30:22.929Z,456
2017-07-12T12:31:24.505Z,428
2017-07-12T12:32:26.136Z,540
2017-07-12T12:33:27.726Z,564
2017-07-12T12:34:29.294Z,692
2017-07-12T12:35:30.880Z,864
2017-07-12T12:36:33.420Z,896
2017-07-12T12:37:35.948Z,980
2017-07-12T12:38:38.494Z,988
2017-07-12T12:39:40.813Z,1008
2017-07-12T12:40:44.319Z,992
2017-07-12T12:41:47.000Z,1024
2017-07-12T12:42:49.165Z,1028
2017-07-12T12:43:51.025Z,1020
2017-07-12T12:44:53.239Z,1012
2017-07-12T12:45:54.887Z,996
2017-07-12T12:46:57.425Z,1008
2017-07-12T12:47:59.986Z,1092
2017-07-12T12:49:42.183Z,1272
2017-07-12T12:50:45.567Z,1316
2017-07-12T12:51:47.198Z,1184
2017-07-12T12:53:46.529Z,920
2017-07-12T12:54:48.373Z,752
2017-07-12T12:55:50.369Z,760
2017-07-12T12:56:51.784Z,612
2017-07-12T12:57:53.362Z,952
2017-07-12T12:58:54.929Z,1288
2017-07-12T12:59:56.502Z,1280
2017-07-12T13:00:58.404Z,1488
2017-07-12T13:02:00.411Z,1584
2017-07-12T13:03:02.373Z,1644
2017-07-12T13:04:04.528Z,1784
2017-07-12T13:05:06.572Z,1568
2017-07-12T13:06:08.671Z,1360
2017-07-12T13:07:10.587Z,1460
2017-07-12T13:08:13.441Z,1384
2017-07-12T13:09:15.926Z,1728
2017-07-12T13:10:18.142Z,1952
2017-07-12T13:11:20.807Z,2040
2017-07-12T13:12:22.637Z,2248
2017-07-12T13:13:24.427Z,2616
2017-07-12T13:14:26.227Z,2708
2017-07-12T13:15:28.031Z,2784
2017-07-12T13:16:29.833Z,2548
2017-07-12T13:17:31.849Z,1988
2017-07-12T13:18:33.698Z,2084
2017-07-12T13:19:35.563Z,2176
2017-07-12T13:20:37.240Z,2064
2017-07-12T13:21:38.937Z,2340
2017-07-12T13:22:40.666Z,2412
2017-07-12T13:23:42.217Z,2448
2017-07-12T13:24:43.757Z,2448
2017-07-12T13:25:45.373Z,2148
2017-07-12T13:26:46.928Z,2296
2017-07-12T13:27:48.435Z,2640
2017-07-12T13:28:49.965Z,2576
2017-07-12T13:29:51.539Z,2556
2017-07-12T13:30:53.629Z,2076
2017-07-12T13:31:55.508Z,2308
2017-07-12T13:32:57.075Z,2016
2017-07-12T13:33:58.949Z,2196
2017-07-12T13:35:00.490Z,2212
2017-07-12T13:36:02.045Z,1964
2017-07-12T13:37:03.609Z,1732
2017-07-12T13:38:05.158Z,1356
2017-07-12T13:39:06.765Z,1172
2017-07-12T13:40:08.349Z,916
2017-07-12T13:41:09.939Z,1452
2017-07-12T13:42:12.422Z,1128
2017-07-12T13:43:13.121Z,932
2017-07-12T13:44:15.922Z,1224
2017-07-12T13:45:17.454Z,1676
2017-07-12T13:46:18.972Z,1792
2017-07-12T13:47:20.555Z,1560
2017-07-12T13:48:22.110Z,1200
2017-07-12T13:49:23.847Z,1148
2017-07-12T13:50:25.367Z,1004
2017-07-12T13:51:27.212Z,820
2017-07-12T13:52:28.722Z,1112
2017-07-12T13:53:30.437Z,1428
2017-07-12T13:54:31.965Z,1048
2017-07-12T13:55:33.515Z,956
2017-07-12T13:56:35.065Z,912
2017-07-12T13:57:36.779Z,948
2017-07-12T13:58:38.528Z,580
2017-07-12T13:59:40.114Z,424
2017-07-12T14:00:41.643Z,384
2017-07-12T14:01:43.206Z,292
2017-07-12T14:02:44.794Z,432
2017-07-12T14:03:46.273Z,636
2017-07-12T14:04:47.892Z,832
2017-07-12T14:05:49.428Z,688
2017-07-12T14:06:50.955Z,1036
2017-07-12T14:07:52.515Z,1108
2017-07-12T14:08:54.097Z,1192
2017-07-12T14:09:55.785Z,1396
2017-07-12T14:10:57.264Z,1684
2017-07-12T14:11:58.868Z,1940
2017-07-12T14:13:00.476Z,2004
2017-07-12T14:14:02.066Z,1960
2017-07-12T14:15:03.614Z,2152
2017-07-12T14:16:05.140Z,2064
2017-07-12T14:17:06.706Z,2256
2017-07-12T14:18:08.211Z,2152
2017-07-12T14:19:09.731Z,1804
2017-07-12T14:20:11.313Z,1248
2017-07-12T14:21:12.932Z,820
2017-07-12T14:22:14.489Z,944
2017-07-12T14:23:16.082Z,740
2017-07-12T14:24:17.603Z,804
2017-07-12T14:25:19.332Z,1032
2017-07-12T14:26:21.034Z,1224
2017-07-12T14:27:22.602Z,1088
2017-07-12T14:28:24.122Z,980
2017-07-12T14:29:25.636Z,916
2017-07-12T14:30:27.174Z,1008
2017-07-12T14:31:28.768Z,788
2017-07-12T14:32:30.640Z,432
2017-07-12T14:33:32.223Z,328
2017-07-12T14:34:33.935Z,364
2017-07-12T14:35:35.511Z,568
2017-07-12T14:36:37.229Z,676
2017-07-12T14:37:38.951Z,724
2017-07-12T14:38:41.902Z,596
2017-07-12T14:39:43.434Z,496
2017-07-12T14:40:45.186Z,456
2017-07-12T14:41:46.895Z,476
2017-07-12T14:42:48.738Z,608
2017-07-12T14:43:50.257Z,932
2017-07-12T14:44:51.817Z,1384
2017-07-12T14:45:54.374Z,1352
2017-07-12T14:46:56.110Z,1200
2017-07-12T14:47:57.682Z,976
2017-07-12T14:48:59.288Z,1004
2017-07-12T14:50:00.902Z,1264
2017-07-12T14:51:02.358Z,1560
2017-07-12T14:52:03.998Z,1828
2017-07-12T14:53:05.461Z,2100
2017-07-12T14:54:06.971Z,1840
2017-07-12T14:55:08.689Z,1768
2017-07-12T14:56:11.391Z,1688
2017-07-12T14:57:12.894Z,1708
2017-07-12T14:58:14.456Z,1740
2017-07-12T14:59:16.149Z,1732
2017-07-12T15:00:17.760Z,1672
2017-07-12T15:01:19.318Z,1552
2017-07-12T15:02:20.868Z,1476
2017-07-12T15:03:22.454Z,1392
2017-07-12T15:04:24.041Z,1284
2017-07-12T15:05:25.670Z,1128
2017-07-12T15:06:27.281Z,988
2017-07-12T15:07:28.870Z,992
2017-07-12T15:08:30.489Z,896
2017-07-12T15:09:32.097Z,940
2017-07-12T15:10:33.806Z,848
2017-07-12T15:11:35.437Z,780
2017-07-12T15:12:38.086Z,720
2017-07-12T15:13:40.750Z,900
2017-07-12T15:14:42.345Z,1436
2017-07-12T15:15:45.379Z,1564
2017-07-12T15:16:46.930Z,1412
2017-07-12T15:17:48.583Z,1076
2017-07-12T15:18:51.570Z,880
2017-07-12T15:19:55.295Z,704
2017-07-12T15:20:58.118Z,536
2017-07-12T15:22:02.614Z,400
2017-07-12T15:23:05.960Z,252
2017-07-12T15:24:07.503Z,180
2017-07-12T15:25:09.179Z,156
2017-07-12T15:26:10.765Z,152
2017-07-12T15:27:12.597Z,160
2017-07-12T15:28:14.344Z,156
2017-07-12T15:29:17.171Z,160
2017-07-12T15:30:19.899Z,180
2017-07-12T15:31:23.102Z,204
2017-07-12T15:32:26.142Z,232
2017-07-12T15:33:27.854Z,264
2017-07-12T15:34:29.563Z,304
2017-07-12T15:35:32.392Z,340
2017-07-12T15:36:32.958Z,404
2017-07-12T15:37:34.621Z,408
2017-07-12T15:38:36.311Z,404
2017-07-12T15:39:37.925Z,416
2017-07-12T15:40:39.643Z,416
2017-07-12T15:41:41.396Z,436
2017-07-12T15:42:43.094Z,504
2017-07-12T15:43:44.826Z,532
2017-07-12T15:44:46.474Z,556
2017-07-12T15:45:48.239Z,560
2017-07-12T15:46:49.910Z,512
2017-07-12T15:47:51.566Z,496
2017-07-12T15:48:53.239Z,532
2017-07-12T15:49:55.796Z,524
2017-07-12T15:50:59.862Z,520
2017-07-12T15:52:04.214Z,532
2017-07-12T15:53:05.924Z,552
2017-07-12T15:54:07.593Z,588